sensor_id;sensor_type;location;lat;lon;timestamp;pressure;altitude;pressure_sealevel;temperature;humidity
53715;BME280;39608;55.630;37.864;2023-05-12T00:03:04;100055.22;;;14.79;46.42
53715;BME280;39608;55.630;37.864;2023-05-12T00:08:07;100085.03;;;14.89;46.42
53715;BME280;39608;55.630;37.864;2023-05-12T00:13:10;100061.44;;;14.70;46.73
53715;BME280;39608;55.630;37.864;2023-05-12T00:18:12;100070.91;;;14.73;47.15
53715;BME280;39608;55.630;37.864;2023-05-12T00:23:16;100085.38;;;14.74;46.96
53715;BME280;39608;55.630;37.864;2023-05-12T00:28:18;100080.84;;;14.69;46.82
53715;BME280;39608;55.630;37.864;2023-05-12T00:33:21;100078.22;;;14.64;46.72
53715;BME280;39608;55.630;37.864;2023-05-12T00:38:24;100076.81;;;14.52;46.97
53715;BME280;39608;55.630;37.864;2023-05-12T00:43:26;100079.97;;;14.46;47.22
53715;BME280;39608;55.630;37.864;2023-05-12T00:48:28;100074.44;;;14.23;47.40
53715;BME280;39608;55.630;37.864;2023-05-12T00:53:32;100081.94;;;14.17;48.14
53715;BME280;39608;55.630;37.864;2023-05-12T00:58:34;100077.28;;;14.18;48.05
53715;BME280;39608;55.630;37.864;2023-05-12T01:03:36;100072.44;;;14.15;47.58
53715;BME280;39608;55.630;37.864;2023-05-12T01:08:39;100071.81;;;14.18;47.10
53715;BME280;39608;55.630;37.864;2023-05-12T01:13:42;100071.03;;;14.17;46.81
53715;BME280;39608;55.630;37.864;2023-05-12T01:18:46;100074.44;;;14.23;46.54
53715;BME280;39608;55.630;37.864;2023-05-12T01:23:55;100063.13;;;14.30;46.26
53715;BME280;39608;55.630;37.864;2023-05-12T01:29:01;100079.09;;;14.23;46.60
53715;BME280;39608;55.630;37.864;2023-05-12T01:34:04;100080.41;;;14.11;47.04
53715;BME280;39608;55.630;37.864;2023-05-12T01:39:06;100076.69;;;14.07;47.15
53715;BME280;39608;55.630;37.864;2023-05-12T01:44:09;100070.22;;;14.03;47.32
53715;BME280;39608;55.630;37.864;2023-05-12T01:49:11;100070.03;;;13.99;46.96
53715;BME280;39608;55.630;37.864;2023-05-12T01:54:13;100073.25;;;14.01;46.98
53715;BME280;39608;55.630;37.864;2023-05-12T01:59:17;100069.72;;;14.01;47.12
53715;BME280;39608;55.630;37.864;2023-05-12T02:04:19;100071.13;;;13.98;46.57
53715;BME280;39608;55.630;37.864;2023-05-12T02:09:21;100061.03;;;13.99;46.63
53715;BME280;39608;55.630;37.864;2023-05-12T02:14:24;100070.22;;;14.03;46.54
53715;BME280;39608;55.630;37.864;2023-05-12T02:19:27;100073.56;;;14.00;46.50
53715;BME280;39608;55.630;37.864;2023-05-12T02:24:30;100068.63;;;14.02;46.32
53715;BME280;39608;55.630;37.864;2023-05-12T02:29:34;100070.13;;;14.08;46.29
53715;BME280;39608;55.630;37.864;2023-05-12T02:34:37;100067.00;;;14.15;46.08
53715;BME280;39608;55.630;37.864;2023-05-12T02:39:39;100066.88;;;14.20;45.67
53715;BME280;39608;55.630;37.864;2023-05-12T02:44:42;100065.34;;;14.28;45.54
53715;BME280;39608;55.630;37.864;2023-05-12T02:49:44;100074.53;;;14.32;45.18
53715;BME280;39608;55.630;37.864;2023-05-12T02:54:46;100080.47;;;14.34;44.92
53715;BME280;39608;55.630;37.864;2023-05-12T02:59:50;100075.44;;;14.41;44.93
53715;BME280;39608;55.630;37.864;2023-05-12T03:04:52;100071.16;;;14.49;44.77
53715;BME280;39608;55.630;37.864;2023-05-12T03:09:54;100079.03;;;14.50;44.88
53715;BME280;39608;55.630;37.864;2023-05-12T03:14:58;100073.97;;;14.58;44.68
53715;BME280;39608;55.630;37.864;2023-05-12T03:20:00;100070.94;;;14.59;44.47
53715;BME280;39608;55.630;37.864;2023-05-12T03:25:08;100090.78;;;14.65;44.28
53715;BME280;39608;55.630;37.864;2023-05-12T03:30:13;100080.84;;;14.69;44.40
53715;BME280;39608;55.630;37.864;2023-05-12T03:35:15;100088.91;;;14.74;44.25
53715;BME280;39608;55.630;37.864;2023-05-12T03:40:17;100075.72;;;14.90;44.08
53715;BME280;39608;55.630;37.864;2023-05-12T03:45:21;100079.31;;;14.99;44.16
53715;BME280;39608;55.630;37.864;2023-05-12T03:50:23;100076.63;;;15.08;44.25
53715;BME280;39608;55.630;37.864;2023-05-12T03:55:25;100092.91;;;15.13;43.89
53715;BME280;39608;55.630;37.864;2023-05-12T04:00:28;100086.25;;;15.28;43.83
53715;BME280;39608;55.630;37.864;2023-05-12T04:05:30;100079.19;;;15.59;43.75
53715;BME280;39608;55.630;37.864;2023-05-12T04:10:32;100072.47;;;16.05;42.57
53715;BME280;39608;55.630;37.864;2023-05-12T04:15:40;100071.56;;;16.45;41.72
53715;BME280;39608;55.630;37.864;2023-05-12T04:20:42;100077.06;;;16.62;41.71
53715;BME280;39608;55.630;37.864;2023-05-12T04:25:44;100074.31;;;16.71;41.52
53715;BME280;39608;55.630;37.864;2023-05-12T04:30:47;100068.38;;;16.77;41.97
53715;BME280;39608;55.630;37.864;2023-05-12T04:35:54;100068.53;;;16.99;41.25
53715;BME280;39608;55.630;37.864;2023-05-12T04:40:57;100069.66;;;17.06;41.50
53715;BME280;39608;55.630;37.864;2023-05-12T04:46:01;100072.00;;;17.34;41.02
53715;BME280;39608;55.630;37.864;2023-05-12T04:51:03;100071.03;;;17.39;40.68
53715;BME280;39608;55.630;37.864;2023-05-12T04:56:05;100070.63;;;17.67;40.77
53715;BME280;39608;55.630;37.864;2023-05-12T05:01:09;100077.50;;;18.20;39.65
53715;BME280;39608;55.630;37.864;2023-05-12T05:06:11;100064.22;;;19.07;37.94
53715;BME280;39608;55.630;37.864;2023-05-12T05:11:14;100066.78;;;20.07;36.47
53715;BME280;39608;55.630;37.864;2023-05-12T05:16:17;100067.81;;;20.80;36.42
53715;BME280;39608;55.630;37.864;2023-05-12T05:21:19;100068.06;;;21.64;34.70
53715;BME280;39608;55.630;37.864;2023-05-12T05:26:21;100082.16;;;22.26;33.75
53715;BME280;39608;55.630;37.864;2023-05-12T05:31:26;100082.50;;;22.41;33.46
53715;BME280;39608;55.630;37.864;2023-05-12T05:36:28;100079.88;;;21.96;34.10
53715;BME280;39608;55.630;37.864;2023-05-12T05:41:30;100070.44;;;21.97;34.34
53715;BME280;39608;55.630;37.864;2023-05-12T05:46:34;100070.72;;;22.44;34.16
53715;BME280;39608;55.630;37.864;2023-05-12T05:51:36;100073.38;;;22.95;33.23
53715;BME280;39608;55.630;37.864;2023-05-12T05:56:38;100080.91;;;23.61;31.78
53715;BME280;39608;55.630;37.864;2023-05-12T06:01:41;100074.50;;;24.03;31.94
53715;BME280;39608;55.630;37.864;2023-05-12T06:06:44;100074.91;;;24.32;30.19
53715;BME280;39608;55.630;37.864;2023-05-12T06:11:46;100063.78;;;24.58;30.61
53715;BME280;39608;55.630;37.864;2023-05-12T06:16:50;100071.38;;;24.96;30.28
53715;BME280;39608;55.630;37.864;2023-05-12T06:21:52;100070.78;;;25.13;28.97
53715;BME280;39608;55.630;37.864;2023-05-12T06:26:54;100069.13;;;25.08;28.96
53715;BME280;39608;55.630;37.864;2023-05-12T06:31:58;100071.00;;;25.35;28.57
53715;BME280;39608;55.630;37.864;2023-05-12T06:37:00;100072.16;;;25.75;27.72
53715;BME280;39608;55.630;37.864;2023-05-12T06:42:03;100062.75;;;25.90;27.30
53715;BME280;39608;55.630;37.864;2023-05-12T06:47:06;100066.59;;;26.27;27.51
53715;BME280;39608;55.630;37.864;2023-05-12T06:52:08;100055.19;;;26.50;26.13
53715;BME280;39608;55.630;37.864;2023-05-12T06:57:10;100054.06;;;26.66;25.61
53715;BME280;39608;55.630;37.864;2023-05-12T07:02:14;100051.69;;;26.64;26.82
53715;BME280;39608;55.630;37.864;2023-05-12T07:07:16;100059.91;;;26.42;25.56
53715;BME280;39608;55.630;37.864;2023-05-12T07:12:18;100046.78;;;26.39;25.49
53715;BME280;39608;55.630;37.864;2023-05-12T07:17:22;100059.13;;;26.42;23.87
53715;BME280;39608;55.630;37.864;2023-05-12T07:22:24;100053.97;;;26.44;21.91
53715;BME280;39608;55.630;37.864;2023-05-12T07:27:26;100048.69;;;26.21;22.05
53715;BME280;39608;55.630;37.864;2023-05-12T07:32:29;100050.13;;;26.00;22.38
53715;BME280;39608;55.630;37.864;2023-05-12T07:37:31;100041.94;;;25.25;22.14
53715;BME280;39608;55.630;37.864;2023-05-12T07:42:33;100041.34;;;25.42;22.25
53715;BME280;39608;55.630;37.864;2023-05-12T07:47:37;100053.50;;;25.72;22.45
53715;BME280;39608;55.630;37.864;2023-05-12T07:52:45;100038.28;;;26.07;21.96
53715;BME280;39608;55.630;37.864;2023-05-12T07:57:48;100032.50;;;25.78;20.66
53715;BME280;39608;55.630;37.864;2023-05-12T08:02:52;100040.88;;;25.85;21.67
53715;BME280;39608;55.630;37.864;2023-05-12T08:07:54;100036.06;;;26.38;19.93
53715;BME280;39608;55.630;37.864;2023-05-12T08:12:56;100036.56;;;26.65;20.28
53715;BME280;39608;55.630;37.864;2023-05-12T08:18:00;100036.72;;;27.01;19.62
53715;BME280;39608;55.630;37.864;2023-05-12T08:23:02;100042.63;;;26.81;18.82
53715;BME280;39608;55.630;37.864;2023-05-12T08:28:04;100031.75;;;26.47;18.89
53715;BME280;39608;55.630;37.864;2023-05-12T08:33:07;100038.84;;;26.41;19.20
53715;BME280;39608;55.630;37.864;2023-05-12T08:38:09;100023.00;;;26.49;17.98
53715;BME280;39608;55.630;37.864;2023-05-12T08:43:16;100027.13;;;26.77;18.24
53715;BME280;39608;55.630;37.864;2023-05-12T08:48:26;100025.56;;;26.06;18.61
53715;BME280;39608;55.630;37.864;2023-05-12T08:53:32;100017.88;;;25.33;18.97
53715;BME280;39608;55.630;37.864;2023-05-12T08:58:36;100015.25;;;25.51;18.59
53715;BME280;39608;55.630;37.864;2023-05-12T09:03:39;100017.50;;;25.93;18.99
53715;BME280;39608;55.630;37.864;2023-05-12T09:08:41;100006.75;;;26.58;17.98
53715;BME280;39608;55.630;37.864;2023-05-12T09:13:53;100002.53;;;27.11;18.49
53715;BME280;39608;55.630;37.864;2023-05-12T09:19:02;99997.28;;;26.77;17.58
53715;BME280;39608;55.630;37.864;2023-05-12T09:24:05;99991.03;;;26.10;18.28
53715;BME280;39608;55.630;37.864;2023-05-12T09:29:08;99996.72;;;26.36;17.67
53715;BME280;39608;55.630;37.864;2023-05-12T09:34:12;99987.38;;;26.94;17.93
53715;BME280;39608;55.630;37.864;2023-05-12T09:39:16;99998.94;;;27.79;17.01
53715;BME280;39608;55.630;37.864;2023-05-12T09:44:18;99991.66;;;28.29;16.88
53715;BME280;39608;55.630;37.864;2023-05-12T09:49:23;99987.91;;;28.68;16.52
53715;BME280;39608;55.630;37.864;2023-05-12T09:54:26;99984.91;;;28.30;16.92
53715;BME280;39608;55.630;37.864;2023-05-12T09:59:31;99962.44;;;28.66;16.80
53715;BME280;39608;55.630;37.864;2023-05-12T10:04:43;99972.16;;;28.22;17.01
53715;BME280;39608;55.630;37.864;2023-05-12T10:09:46;99971.88;;;26.97;17.93
53715;BME280;39608;55.630;37.864;2023-05-12T10:14:50;99973.91;;;27.65;17.34
53715;BME280;39608;55.630;37.864;2023-05-12T10:19:54;99965.56;;;27.43;17.25
53715;BME280;39608;55.630;37.864;2023-05-12T10:24:57;99956.03;;;27.37;17.02
53715;BME280;39608;55.630;37.864;2023-05-12T10:30:00;99955.88;;;26.65;17.90
53715;BME280;39608;55.630;37.864;2023-05-12T10:35:11;99962.31;;;25.92;18.69
53715;BME280;39608;55.630;37.864;2023-05-12T10:40:22;99958.66;;;25.25;19.29
53715;BME280;39608;55.630;37.864;2023-05-12T10:45:24;99951.28;;;25.43;18.85
53715;BME280;39608;55.630;37.864;2023-05-12T10:50:28;99958.69;;;26.69;18.10
53715;BME280;39608;55.630;37.864;2023-05-12T10:55:31;99963.50;;;27.87;17.92
53715;BME280;39608;55.630;37.864;2023-05-12T11:00:42;99967.88;;;28.03;17.79
53715;BME280;39608;55.630;37.864;2023-05-12T11:05:57;99964.72;;;26.89;18.01
53715;BME280;39608;55.630;37.864;2023-05-12T11:10:59;99959.91;;;25.87;18.09
53715;BME280;39608;55.630;37.864;2023-05-12T11:16:02;99955.88;;;25.25;19.04
53715;BME280;39608;55.630;37.864;2023-05-12T11:21:09;99951.13;;;24.81;19.57
53715;BME280;39608;55.630;37.864;2023-05-12T11:26:16;99949.97;;;24.48;20.36
53715;BME280;39608;55.630;37.864;2023-05-12T11:31:19;99957.44;;;24.43;20.04
53715;BME280;39608;55.630;37.864;2023-05-12T11:36:26;99953.88;;;24.43;19.97
53715;BME280;39608;55.630;37.864;2023-05-12T11:41:28;99953.59;;;24.21;20.08
53715;BME280;39608;55.630;37.864;2023-05-12T11:46:30;99939.75;;;24.21;20.31
53715;BME280;39608;55.630;37.864;2023-05-12T11:51:33;99948.03;;;24.18;20.20
53715;BME280;39608;55.630;37.864;2023-05-12T11:56:35;99944.72;;;24.08;20.97
53715;BME280;39608;55.630;37.864;2023-05-12T12:01:43;99942.81;;;25.29;20.06
53715;BME280;39608;55.630;37.864;2023-05-12T12:06:47;99948.81;;;25.31;19.40
53715;BME280;39608;55.630;37.864;2023-05-12T12:11:49;99932.91;;;24.80;19.88
53715;BME280;39608;55.630;37.864;2023-05-12T12:16:52;99934.56;;;25.36;19.11
53715;BME280;39608;55.630;37.864;2023-05-12T12:21:56;99924.75;;;26.20;18.48
53715;BME280;39608;55.630;37.864;2023-05-12T12:26:58;99923.72;;;27.69;17.55
53715;BME280;39608;55.630;37.864;2023-05-12T12:32:00;99910.28;;;29.08;16.04
53715;BME280;39608;55.630;37.864;2023-05-12T12:37:04;99916.88;;;28.80;16.52
53715;BME280;39608;55.630;37.864;2023-05-12T12:42:06;99914.91;;;27.88;16.69
53715;BME280;39608;55.630;37.864;2023-05-12T12:47:08;99908.25;;;27.57;16.75
53715;BME280;39608;55.630;37.864;2023-05-12T12:52:12;99902.28;;;27.40;17.42
53715;BME280;39608;55.630;37.864;2023-05-12T12:57:14;99905.88;;;26.72;17.95
53715;BME280;39608;55.630;37.864;2023-05-12T13:02:16;99896.59;;;26.32;18.71
53715;BME280;39608;55.630;37.864;2023-05-12T13:07:20;99899.13;;;26.95;17.88
53715;BME280;39608;55.630;37.864;2023-05-12T13:12:22;99897.75;;;27.97;16.98
53715;BME280;39608;55.630;37.864;2023-05-12T13:17:24;99897.78;;;29.24;16.40
53715;BME280;39608;55.630;37.864;2023-05-12T13:22:28;99896.13;;;30.06;15.67
53715;BME280;39608;55.630;37.864;2023-05-12T13:27:30;99889.13;;;29.52;16.02
53715;BME280;39608;55.630;37.864;2023-05-12T13:32:33;99891.63;;;28.98;16.29
53715;BME280;39608;55.630;37.864;2023-05-12T13:37:36;99866.75;;;28.62;16.37
53715;BME280;39608;55.630;37.864;2023-05-12T13:42:39;99885.41;;;27.98;16.91
53715;BME280;39608;55.630;37.864;2023-05-12T13:47:41;99881.59;;;27.45;17.21
53715;BME280;39608;55.630;37.864;2023-05-12T13:52:44;99870.44;;;27.30;17.57
53715;BME280;39608;55.630;37.864;2023-05-12T13:57:48;99875.88;;;28.03;16.69
53715;BME280;39608;55.630;37.864;2023-05-12T14:02:50;99872.59;;;28.19;16.48
53715;BME280;39608;55.630;37.864;2023-05-12T14:07:54;99867.56;;;28.62;16.40
53715;BME280;39608;55.630;37.864;2023-05-12T14:12:56;99863.03;;;28.16;16.42
53715;BME280;39608;55.630;37.864;2023-05-12T14:17:58;99863.09;;;27.98;17.06
53715;BME280;39608;55.630;37.864;2023-05-12T14:23:02;99850.69;;;28.21;16.78
53715;BME280;39608;55.630;37.864;2023-05-12T14:28:04;99853.78;;;27.09;17.67
53715;BME280;39608;55.630;37.864;2023-05-12T14:33:07;99851.00;;;26.91;18.10
53715;BME280;39608;55.630;37.864;2023-05-12T14:38:10;99858.09;;;27.53;17.38
53715;BME280;39608;55.630;37.864;2023-05-12T14:43:12;99851.47;;;28.17;17.14
53715;BME280;39608;55.630;37.864;2023-05-12T14:48:15;99841.69;;;28.55;16.65
53715;BME280;39608;55.630;37.864;2023-05-12T14:53:18;99843.72;;;28.47;17.01
53715;BME280;39608;55.630;37.864;2023-05-12T14:58:20;99826.22;;;27.61;17.34
53715;BME280;39608;55.630;37.864;2023-05-12T15:03:23;99843.78;;;26.54;18.33
53715;BME280;39608;55.630;37.864;2023-05-12T15:08:27;99841.94;;;25.66;18.92
53715;BME280;39608;55.630;37.864;2023-05-12T15:13:31;99839.69;;;25.23;19.27
53715;BME280;39608;55.630;37.864;2023-05-12T15:18:33;99846.16;;;25.38;19.12
53715;BME280;39608;55.630;37.864;2023-05-12T15:23:36;99831.50;;;25.41;19.00
53715;BME280;39608;55.630;37.864;2023-05-12T15:28:38;99829.66;;;25.04;18.83
53715;BME280;39608;55.630;37.864;2023-05-12T15:33:41;99832.78;;;24.54;19.38
53715;BME280;39608;55.630;37.864;2023-05-12T15:38:44;99846.13;;;24.04;19.75
53715;BME280;39608;55.630;37.864;2023-05-12T15:43:47;99836.88;;;23.62;20.39
53715;BME280;39608;55.630;37.864;2023-05-12T15:48:49;99840.56;;;23.43;20.95
53715;BME280;39608;55.630;37.864;2023-05-12T15:53:52;99839.34;;;23.40;20.93
53715;BME280;39608;55.630;37.864;2023-05-12T15:58:55;99832.22;;;23.39;20.98
53715;BME280;39608;55.630;37.864;2023-05-12T16:03:57;99836.25;;;23.46;21.38
53715;BME280;39608;55.630;37.864;2023-05-12T16:09:01;99835.47;;;23.45;21.11
53715;BME280;39608;55.630;37.864;2023-05-12T16:14:04;99836.44;;;23.30;21.36
53715;BME280;39608;55.630;37.864;2023-05-12T16:19:09;99827.31;;;23.29;21.59
53715;BME280;39608;55.630;37.864;2023-05-12T16:24:12;99834.69;;;23.18;21.92
53715;BME280;39608;55.630;37.864;2023-05-12T16:29:14;99828.59;;;23.09;21.87
53715;BME280;39608;55.630;37.864;2023-05-12T16:34:17;99841.25;;;23.10;21.75
53715;BME280;39608;55.630;37.864;2023-05-12T16:39:21;99834.81;;;23.02;22.08
53715;BME280;39608;55.630;37.864;2023-05-12T16:44:24;99841.59;;;22.81;22.02
53715;BME280;39608;55.630;37.864;2023-05-12T16:49:26;99845.34;;;22.69;22.02
53715;BME280;39608;55.630;37.864;2023-05-12T16:54:31;99843.63;;;22.61;22.28
53715;BME280;39608;55.630;37.864;2023-05-12T16:59:33;99851.34;;;22.52;22.29
53715;BME280;39608;55.630;37.864;2023-05-12T17:04:36;99848.75;;;22.39;21.82
53715;BME280;39608;55.630;37.864;2023-05-12T17:09:40;99848.75;;;22.39;22.28
53715;BME280;39608;55.630;37.864;2023-05-12T17:14:42;99856.84;;;22.29;22.40
53715;BME280;39608;55.630;37.864;2023-05-12T17:19:44;99858.94;;;22.16;22.37
53715;BME280;39608;55.630;37.864;2023-05-12T17:24:48;99871.75;;;22.04;22.61
53715;BME280;39608;55.630;37.864;2023-05-12T17:29:50;99865.56;;;21.92;22.66
53715;BME280;39608;55.630;37.864;2023-05-12T17:34:52;99867.75;;;21.82;22.48
53715;BME280;39608;55.630;37.864;2023-05-12T17:39:59;99859.94;;;21.68;22.76
53715;BME280;39608;55.630;37.864;2023-05-12T17:45:02;99867.66;;;21.59;22.59
53715;BME280;39608;55.630;37.864;2023-05-12T17:50:07;99881.72;;;21.54;22.73
53715;BME280;39608;55.630;37.864;2023-05-12T17:55:13;99876.81;;;21.47;22.57
53715;BME280;39608;55.630;37.864;2023-05-12T18:00:15;99880.66;;;21.43;23.16
53715;BME280;39608;55.630;37.864;2023-05-12T18:05:18;99875.34;;;21.34;22.89
53715;BME280;39608;55.630;37.864;2023-05-12T18:10:21;99874.66;;;21.21;23.06
53715;BME280;39608;55.630;37.864;2023-05-12T18:15:26;99882.41;;;21.15;23.18
53715;BME280;39608;55.630;37.864;2023-05-12T18:20:29;99884.53;;;21.06;22.83
53715;BME280;39608;55.630;37.864;2023-05-12T18:25:33;99888.28;;;20.98;23.26
53715;BME280;39608;55.630;37.864;2023-05-12T18:30:36;99890.94;;;20.78;23.41
53715;BME280;39608;55.630;37.864;2023-05-12T18:35:38;99890.66;;;20.67;23.78
53715;BME280;39608;55.630;37.864;2023-05-12T18:40:41;99893.31;;;20.64;23.79
53715;BME280;39608;55.630;37.864;2023-05-12T18:45:44;99894.63;;;20.54;23.75
53715;BME280;39608;55.630;37.864;2023-05-12T18:50:48;99890.06;;;20.46;24.05
53715;BME280;39608;55.630;37.864;2023-05-12T18:55:52;99897.44;;;20.42;23.97
53715;BME280;39608;55.630;37.864;2023-05-12T19:00:54;99888.69;;;20.40;23.90
53715;BME280;39608;55.630;37.864;2023-05-12T19:05:56;99884.63;;;20.33;23.67
53715;BME280;39608;55.630;37.864;2023-05-12T19:11:00;99887.72;;;20.32;24.06
53715;BME280;39608;55.630;37.864;2023-05-12T19:16:02;99885.38;;;20.18;24.37
53715;BME280;39608;55.630;37.864;2023-05-12T19:21:04;99889.06;;;20.10;23.96
53715;BME280;39608;55.630;37.864;2023-05-12T19:26:08;99901.03;;;20.02;24.39
53715;BME280;39608;55.630;37.864;2023-05-12T19:31:11;99884.56;;;19.77;24.71
53715;BME280;39608;55.630;37.864;2023-05-12T19:36:13;99883.97;;;19.71;25.04
53715;BME280;39608;55.630;37.864;2023-05-12T19:41:16;99890.53;;;19.66;25.33
53715;BME280;39608;55.630;37.864;2023-05-12T19:46:18;99885.25;;;19.61;24.64
53715;BME280;39608;55.630;37.864;2023-05-12T19:51:20;99888.72;;;19.58;24.72
53715;BME280;39608;55.630;37.864;2023-05-12T19:56:24;99884.25;;;19.54;25.22
53715;BME280;39608;55.630;37.864;2023-05-12T20:01:26;99893.44;;;19.45;25.70
53715;BME280;39608;55.630;37.864;2023-05-12T20:06:29;99889.53;;;19.46;25.53
53715;BME280;39608;55.630;37.864;2023-05-12T20:11:33;99871.44;;;19.33;24.93
53715;BME280;39608;55.630;37.864;2023-05-12T20:16:36;99881.53;;;19.41;25.75
53715;BME280;39608;55.630;37.864;2023-05-12T20:21:40;99881.16;;;19.43;24.89
53715;BME280;39608;55.630;37.864;2023-05-12T20:26:44;99854.16;;;19.20;25.14
53715;BME280;39608;55.630;37.864;2023-05-12T20:31:46;99869.72;;;19.28;24.74
53715;BME280;39608;55.630;37.864;2023-05-12T20:36:48;99884.50;;;19.36;24.61
53715;BME280;39608;55.630;37.864;2023-05-12T20:41:52;99890.25;;;19.43;24.52
53715;BME280;39608;55.630;37.864;2023-05-12T20:46:55;99894.81;;;19.39;24.73
53715;BME280;39608;55.630;37.864;2023-05-12T20:52:16;99889.19;;;19.60;24.44
53715;BME280;39608;55.630;37.864;2023-05-12T20:57:20;99868.81;;;19.24;24.72
53715;BME280;39608;55.630;37.864;2023-05-12T21:02:24;99888.50;;;19.26;24.74
53715;BME280;39608;55.630;37.864;2023-05-12T21:07:28;99866.06;;;19.12;24.67
53715;BME280;39608;55.630;37.864;2023-05-12T21:12:32;99866.41;;;19.10;25.16
53715;BME280;39608;55.630;37.864;2023-05-12T21:17:34;99877.06;;;19.12;25.28
53715;BME280;39608;55.630;37.864;2023-05-12T21:22:38;99892.63;;;19.08;25.67
53715;BME280;39608;55.630;37.864;2023-05-12T21:27:42;99890.59;;;19.05;25.40
53715;BME280;39608;55.630;37.864;2023-05-12T21:32:47;99887.59;;;18.97;25.82
53715;BME280;39608;55.630;37.864;2023-05-12T21:37:49;99826.38;;;18.51;25.77
53715;BME280;39608;55.630;37.864;2023-05-12T21:42:55;99858.00;;;18.70;26.32
53715;BME280;39608;55.630;37.864;2023-05-12T21:47:57;99877.78;;;18.63;26.64
53715;BME280;39608;55.630;37.864;2023-05-12T21:52:59;99880.53;;;18.63;26.18
53715;BME280;39608;55.630;37.864;2023-05-12T21:58:03;99870.09;;;18.56;26.38
53715;BME280;39608;55.630;37.864;2023-05-12T22:03:07;99892.34;;;18.63;27.14
53715;BME280;39608;55.630;37.864;2023-05-12T22:08:10;99866.72;;;18.38;27.20
53715;BME280;39608;55.630;37.864;2023-05-12T22:13:13;99871.91;;;18.40;26.80
53715;BME280;39608;55.630;37.864;2023-05-12T22:18:15;99889.16;;;18.40;27.30
53715;BME280;39608;55.630;37.864;2023-05-12T22:23:17;99874.34;;;18.20;27.76
53715;BME280;39608;55.630;37.864;2023-05-12T22:28:21;99880.84;;;18.16;27.11
53715;BME280;39608;55.630;37.864;2023-05-12T22:33:23;99874.63;;;18.06;27.02
53715;BME280;39608;55.630;37.864;2023-05-12T22:38:25;99851.00;;;17.93;27.25
53715;BME280;39608;55.630;37.864;2023-05-12T22:43:29;99887.34;;;18.11;27.26
53715;BME280;39608;55.630;37.864;2023-05-12T22:48:31;99842.69;;;17.81;27.37
53715;BME280;39608;55.630;37.864;2023-05-12T22:53:34;99873.34;;;18.04;27.43
53715;BME280;39608;55.630;37.864;2023-05-12T22:58:37;99876.63;;;17.97;27.48
53715;BME280;39608;55.630;37.864;2023-05-12T23:03:39;99887.28;;;17.99;27.77
53715;BME280;39608;55.630;37.864;2023-05-12T23:08:41;99878.34;;;17.81;28.15
53715;BME280;39608;55.630;37.864;2023-05-12T23:13:45;99894.94;;;17.84;27.95
53715;BME280;39608;55.630;37.864;2023-05-12T23:18:47;99884.25;;;17.70;28.30
53715;BME280;39608;55.630;37.864;2023-05-12T23:23:49;99884.34;;;17.53;28.69
53715;BME280;39608;55.630;37.864;2023-05-12T23:28:53;99881.81;;;17.48;28.64
53715;BME280;39608;55.630;37.864;2023-05-12T23:33:55;99878.59;;;17.45;28.87
53715;BME280;39608;55.630;37.864;2023-05-12T23:38:57;99876.91;;;17.32;28.97
53715;BME280;39608;55.630;37.864;2023-05-12T23:44:01;99866.13;;;17.27;29.10
53715;BME280;39608;55.630;37.864;2023-05-12T23:49:03;99861.38;;;17.06;29.56
53715;BME280;39608;55.630;37.864;2023-05-12T23:54:06;99869.16;;;17.04;29.75
53715;BME280;39608;55.630;37.864;2023-05-12T23:59:09;99887.16;;;17.14;29.45
